»·PEaware :: N902SQ KRBG-KSJC

N902SQ :: KRBG-KSJC

FLIGHT INFORMATION

Flight Status: Arrived
Operator: Privately registered:
United States
More flights under this callsign
Pilot: Gabor H. (24209)
Aircraft: SOCATA TBM-900
(TBM9)
More flights by this aircraft type
Origin: KRBG Roseburg Regl
United States
Destination: KSJC Mineta San Jose Intl
United States
More flights between these airports :: More routes between these airports
Route: RBG V448 OED J126 SAC LIN MOD BORED KLIDE
File this flight plan on PilotEdge
Remarks:
Altitude:
(Current/Filed)
27,000ft
Speed:
(Current/Filed)
310kts
Departed: 26-Oct-23 10:59 AM
Arrived: 26-Oct-23 12:27 PM
Distance/Time
Traveled:
359nm/1:28
Distance/Time
To Go:
Arrived

Flight Plot

Page will automatically refresh every two minutes.

Flight plan parsing failed; only flown route is shown


Map Options




Map Legend


Flown Route
Filed Route
Departure Airport
Arrival Airport
Navaid (VOR, NDB)
Fix

Horizontal Profiles

Position Reports

Time Latitude Longitude Heading Altitude Ground
Speed
26-Oct-23 10:46 43.235664 -123.357346 359 537ft 0kts
26-Oct-23 10:47 43.235664 -123.357346 359 537ft 0kts
26-Oct-23 10:48 43.235664 -123.357346 359 537ft 0kts
26-Oct-23 10:49 43.235664 -123.357346 359 537ft 0kts
26-Oct-23 10:50 43.235664 -123.357346 359 537ft 0kts
26-Oct-23 10:51 43.235664 -123.357346 359 537ft 0kts
26-Oct-23 10:52 43.235664 -123.357346 359 537ft 0kts
26-Oct-23 10:54 43.235664 -123.357346 359 537ft 0kts
26-Oct-23 10:55 43.235664 -123.357346 359 537ft 0kts
26-Oct-23 10:56 43.235664 -123.357346 359 537ft 0kts
26-Oct-23 10:57 43.234912 -123.356795 180 537ft 8kts
26-Oct-23 10:58 43.232578 -123.356161 74 537ft 15kts
26-Oct-23 10:59 43.256957 -123.355127 1 1473ft 128kts
26-Oct-23 11:00 43.275267 -123.380716 229 3587ft 133kts
26-Oct-23 11:01 43.240801 -123.377718 162 5691ft 134kts
26-Oct-23 11:02 43.204812 -123.362124 162 7737ft 140kts
26-Oct-23 11:03 43.168048 -123.343066 156 9792ft 147kts
26-Oct-23 11:04 43.129285 -123.318566 158 11782ft 161kts
26-Oct-23 11:05 43.087491 -123.292238 160 13708ft 173kts
26-Oct-23 11:06 43.043277 -123.264389 160 15582ft 181kts
26-Oct-23 11:07 42.996794 -123.235148 161 17408ft 190kts
26-Oct-23 11:08 42.948075 -123.204545 162 19221ft 197kts
26-Oct-23 11:09 42.897211 -123.172673 162 21113ft 208kts
26-Oct-23 11:10 42.844415 -123.139607 162 23226ft 212kts
26-Oct-23 11:11 42.789924 -123.105582 162 25011ft 221kts
26-Oct-23 11:12 42.732689 -123.069879 163 27056ft 230kts
26-Oct-23 11:13 42.664989 -123.027886 160 27320ft 302kts
26-Oct-23 11:14 42.584033 -122.977530 160 27288ft 333kts
26-Oct-23 11:15 42.498374 -122.924513 160 27274ft 343kts
26-Oct-23 11:16 42.407914 -122.891766 173 27269ft 339kts
26-Oct-23 11:17 42.316045 -122.864792 173 27267ft 338kts
26-Oct-23 11:18 42.223991 -122.837819 173 27268ft 338kts
26-Oct-23 11:19 42.132276 -122.811021 174 27268ft 338kts
26-Oct-23 11:19 42.055968 -122.788785 174 27268ft 338kts
26-Oct-23 11:20 41.964260 -122.762130 174 27264ft 337kts
26-Oct-23 11:22 41.858817 -122.731584 174 27256ft 336kts
26-Oct-23 11:23 41.767754 -122.705287 174 27256ft 336kts
26-Oct-23 11:23 41.691841 -122.683422 174 27256ft 336kts
26-Oct-23 11:24 41.600611 -122.657214 174 27258ft 335kts
26-Oct-23 11:25 41.509487 -122.631111 174 27259ft 336kts
26-Oct-23 11:26 41.418279 -122.605062 174 27260ft 336kts
26-Oct-23 11:28 41.311587 -122.574678 174 27260ft 337kts
26-Oct-23 11:28 41.235346 -122.553031 174 27258ft 337kts
26-Oct-23 11:29 41.143786 -122.527121 173 27246ft 338kts
26-Oct-23 11:30 41.051602 -122.501076 173 27229ft 339kts
26-Oct-23 11:31 40.959519 -122.475144 173 27218ft 338kts
26-Oct-23 11:32 40.867791 -122.449395 173 27212ft 338kts
26-Oct-23 11:33 40.776105 -122.423729 173 27214ft 337kts
26-Oct-23 11:34 40.684574 -122.398176 173 27214ft 337kts
26-Oct-23 11:35 40.592845 -122.372651 173 27215ft 337kts
26-Oct-23 11:36 40.502149 -122.347456 174 27211ft 336kts
26-Oct-23 11:37 40.411036 -122.322227 174 27209ft 335kts
26-Oct-23 11:38 40.320085 -122.297123 174 27212ft 335kts
26-Oct-23 11:39 40.228948 -122.272034 174 27215ft 334kts
26-Oct-23 11:40 40.138078 -122.247088 174 27218ft 335kts
26-Oct-23 11:41 40.047894 -122.214749 168 27220ft 339kts
26-Oct-23 11:42 39.958250 -122.176817 168 27222ft 339kts
26-Oct-23 11:43 39.869690 -122.139464 168 27224ft 339kts
26-Oct-23 11:44 39.780210 -122.101841 168 27226ft 339kts
26-Oct-23 11:45 39.690594 -122.064245 168 27227ft 339kts
26-Oct-23 11:46 39.601015 -122.026792 168 27228ft 339kts
26-Oct-23 11:47 39.511616 -121.989488 167 27228ft 338kts
26-Oct-23 11:48 39.421987 -121.952200 167 27217ft 339kts
26-Oct-23 11:49 39.332216 -121.914967 167 27202ft 339kts
26-Oct-23 11:50 39.242532 -121.877846 167 27197ft 338kts
26-Oct-23 11:51 39.152945 -121.840887 167 27194ft 338kts
26-Oct-23 11:52 39.063510 -121.804068 167 27195ft 338kts
26-Oct-23 11:53 38.974059 -121.767359 167 27196ft 338kts
26-Oct-23 11:54 38.886146 -121.731360 167 27193ft 338kts
26-Oct-23 11:55 38.796618 -121.694806 167 27193ft 338kts
26-Oct-23 11:56 38.707345 -121.658451 167 27193ft 337kts
26-Oct-23 11:57 38.617886 -121.622114 167 27193ft 337kts
26-Oct-23 11:58 38.528581 -121.585942 167 27195ft 337kts
26-Oct-23 11:59 38.440805 -121.544730 149 27193ft 344kts
26-Oct-23 12:00 38.377097 -121.452438 131 27196ft 349kts
26-Oct-23 12:01 38.314244 -121.358429 131 27189ft 350kts
26-Oct-23 12:02 38.251843 -121.265731 132 27172ft 349kts
26-Oct-23 12:03 38.188741 -121.172266 132 27172ft 349kts
26-Oct-23 12:04 38.125351 -121.078646 132 27166ft 350kts
26-Oct-23 12:05 38.051505 -121.001908 163 26489ft 345kts
26-Oct-23 12:06 37.955780 -120.991279 180 24504ft 353kts
26-Oct-23 12:07 37.859017 -120.981601 179 22741ft 352kts
26-Oct-23 12:08 37.761500 -120.971584 179 20886ft 349kts
26-Oct-23 12:09 37.665524 -120.961755 180 19048ft 344kts
26-Oct-23 12:10 37.593001 -121.012877 236 17190ft 304kts
26-Oct-23 12:11 37.541733 -121.094806 236 15591ft 294kts
26-Oct-23 12:12 37.491305 -121.175184 235 14066ft 294kts
26-Oct-23 12:13 37.440770 -121.255550 235 12511ft 293kts
26-Oct-23 12:14 37.390070 -121.335989 234 10961ft 292kts
26-Oct-23 12:15 37.341110 -121.413438 233 9451ft 274kts
26-Oct-23 12:16 37.295095 -121.488158 235 8031ft 270kts
26-Oct-23 12:17 37.250897 -121.564256 235 6613ft 271kts
26-Oct-23 12:18 37.206474 -121.640546 235 5139ft 270kts
26-Oct-23 12:19 37.202111 -121.712779 293 4184ft 194kts
26-Oct-23 12:20 37.208122 -121.768808 320 3622ft 159kts
26-Oct-23 12:21 37.241529 -121.799534 326 2991ft 148kts
26-Oct-23 12:22 37.273942 -121.832843 320 2214ft 149kts
26-Oct-23 12:23 37.303247 -121.864870 318 1480ft 139kts
26-Oct-23 12:24 37.333306 -121.897736 318 753ft 117kts
26-Oct-23 12:25 37.354246 -121.920605 318 133ft 87kts
26-Oct-23 12:26 37.362021 -121.931044 232 65ft 13kts
26-Oct-23 12:27 37.360153 -121.931369 138 65ft 7kts
26-Oct-23 12:28 37.358810 -121.931029 229 65ft 2kts
26-Oct-23 12:29 37.358735 -121.931138 229 65ft 0kts
26-Oct-23 12:30 37.358735 -121.931138 229 65ft 0kts
26-Oct-23 12:31 37.358735 -121.931137 229 65ft 0kts

Navigation Log

Ident Type
Flight plan parsing failed, navigation log unavailable